createdAt,value
2019-01-14T00:00:42.098Z,0.60
2019-01-14T00:01:42.332Z,0.50
2019-01-14T00:03:46.501Z,0.60
2019-01-14T00:04:46.736Z,0.50
2019-01-14T00:06:50.880Z,0.60
2019-01-14T00:07:51.118Z,0.60
2019-01-14T00:09:55.284Z,0.50
2019-01-14T00:10:55.521Z,0.50
2019-01-14T00:12:59.670Z,0.50
2019-01-14T00:13:59.904Z,0.50
2019-01-14T00:15:53.010Z,0.50
2019-01-14T00:16:54.566Z,0.50
2019-01-14T00:18:57.415Z,0.50
2019-01-14T00:19:57.649Z,0.40
2019-01-14T00:22:01.801Z,0.40
2019-01-14T00:23:02.035Z,0.50
2019-01-14T00:25:06.214Z,0.50
2019-01-14T00:26:06.449Z,0.50
2019-01-14T00:28:10.597Z,0.40
2019-01-14T00:29:10.830Z,0.50
2019-01-14T00:31:15.000Z,0.50
2019-01-14T00:32:15.234Z,0.50
2019-01-14T00:34:19.401Z,0.60
2019-01-14T00:35:19.636Z,0.70
2019-01-14T00:37:23.778Z,0.60
2019-01-14T00:38:24.010Z,0.50
2019-01-14T00:40:28.179Z,0.60
2019-01-14T00:41:28.413Z,0.60
2019-01-14T00:43:32.561Z,0.70
2019-01-14T00:44:32.794Z,0.70
2019-01-14T00:46:36.973Z,0.70
2019-01-14T00:47:37.208Z,0.60
2019-01-14T00:49:41.371Z,0.60
2019-01-14T00:50:41.604Z,0.70
2019-01-14T00:52:45.751Z,0.80
2019-01-14T00:53:45.987Z,0.70
2019-01-14T00:55:39.093Z,0.70
2019-01-14T00:56:39.328Z,0.70
2019-01-14T00:58:43.480Z,0.80
2019-01-14T00:59:43.715Z,0.90
2019-01-14T01:01:47.885Z,0.90
2019-01-14T01:02:48.122Z,0.90
2019-01-14T01:04:52.294Z,0.90
2019-01-14T01:05:52.530Z,0.90
2019-01-14T01:07:56.678Z,1.00
2019-01-14T01:08:56.909Z,1.10
2019-01-14T01:11:01.082Z,0.90
2019-01-14T01:12:01.314Z,0.90
2019-01-14T01:14:05.463Z,1.00
2019-01-14T01:15:05.698Z,1.00
2019-01-14T01:17:09.869Z,1.00
2019-01-14T01:18:10.104Z,1.00
2019-01-14T01:20:14.274Z,1.10
2019-01-14T01:21:14.507Z,0.90
2019-01-14T01:23:18.657Z,0.90
2019-01-14T01:24:18.889Z,1.00
2019-01-14T01:26:11.986Z,0.90
2019-01-14T01:27:12.221Z,0.80
2019-01-14T01:29:16.373Z,0.80
2019-01-14T01:30:16.608Z,0.70
2019-01-14T01:32:20.793Z,0.90
2019-01-14T01:33:21.010Z,0.80
2019-01-14T01:35:25.184Z,0.90
2019-01-14T01:36:31.669Z,0.80
2019-01-14T01:38:29.568Z,1.00
2019-01-14T01:39:29.807Z,0.80
2019-01-14T01:41:34.002Z,0.90
2019-01-14T01:42:34.237Z,0.90
2019-01-14T01:44:38.388Z,0.70
2019-01-14T01:45:38.630Z,0.70
2019-01-14T01:47:42.788Z,0.80
2019-01-14T01:48:43.021Z,0.70
2019-01-14T01:50:47.197Z,0.90
2019-01-14T01:51:47.430Z,0.70
2019-01-14T01:53:51.582Z,0.80
2019-01-14T01:54:51.818Z,0.70
2019-01-14T01:56:55.991Z,0.60
2019-01-14T01:57:56.226Z,0.70
2019-01-14T02:00:00.375Z,0.80
2019-01-14T02:01:00.610Z,0.70
2019-01-14T02:03:04.779Z,0.70
2019-01-14T02:04:05.014Z,0.80
2019-01-14T02:05:58.109Z,0.90
2019-01-14T02:06:58.347Z,1.00
2019-01-14T02:09:02.497Z,0.70
2019-01-14T02:10:02.722Z,0.90
2019-01-14T02:12:06.895Z,0.60
2019-01-14T02:13:07.129Z,0.70
2019-01-14T02:15:11.284Z,0.80
2019-01-14T02:16:11.518Z,0.90
2019-01-14T02:18:16.702Z,0.90
2019-01-14T02:19:16.937Z,0.70
2019-01-14T02:21:21.119Z,0.70
2019-01-14T02:22:21.355Z,0.60
2019-01-14T02:24:25.534Z,0.70
2019-01-14T02:25:25.762Z,0.80
2019-01-14T02:27:29.931Z,0.70
2019-01-14T02:28:30.166Z,1.00
2019-01-14T02:30:34.313Z,0.80
2019-01-14T02:31:34.548Z,0.90
2019-01-14T02:33:38.726Z,1.00
2019-01-14T02:34:38.962Z,1.10
2019-01-14T02:36:48.426Z,0.60
2019-01-14T02:37:43.365Z,0.70
2019-01-14T02:39:47.522Z,0.80
2019-01-14T02:40:47.756Z,0.50
2019-01-14T02:42:51.923Z,0.70
2019-01-14T02:43:52.157Z,0.70
2019-01-14T02:45:45.230Z,0.80
2019-01-14T02:46:45.468Z,0.60
2019-01-14T02:48:49.630Z,0.60
2019-01-14T02:49:49.865Z,0.60
2019-01-14T02:51:54.035Z,0.60
2019-01-14T02:52:54.266Z,0.90
2019-01-14T02:54:58.429Z,0.70
2019-01-14T02:55:58.666Z,0.90
2019-01-14T02:58:02.841Z,0.60
2019-01-14T02:59:03.066Z,0.90
2019-01-14T03:01:07.222Z,0.90
2019-01-14T03:02:07.464Z,0.80
2019-01-14T03:04:12.664Z,0.70
2019-01-14T03:05:12.901Z,0.70
2019-01-14T03:07:17.096Z,0.80
2019-01-14T03:08:17.308Z,0.70
2019-01-14T03:10:21.454Z,0.70
2019-01-14T03:11:21.687Z,0.70
2019-01-14T03:13:25.858Z,0.70
2019-01-14T03:14:26.086Z,0.70
2019-01-14T03:16:30.235Z,0.60
2019-01-14T03:17:30.468Z,0.80
2019-01-14T03:19:34.640Z,0.70
2019-01-14T03:20:34.871Z,0.70
2019-01-14T03:22:39.034Z,0.80
2019-01-14T03:23:39.272Z,0.70
2019-01-14T03:25:38.923Z,0.70
2019-01-14T03:26:32.816Z,0.60
2019-01-14T03:28:36.900Z,0.90
2019-01-14T03:29:37.136Z,1.00
2019-01-14T03:31:41.278Z,0.80
2019-01-14T03:32:41.523Z,0.70
2019-01-14T03:34:45.682Z,0.80
2019-01-14T03:35:45.915Z,1.00
2019-01-14T03:37:50.094Z,1.00
2019-01-14T03:38:50.328Z,0.90
2019-01-14T03:40:54.475Z,1.20
2019-01-14T03:41:54.704Z,1.20
2019-01-14T03:43:58.871Z,0.90
2019-01-14T03:44:59.108Z,1.30
2019-01-14T03:47:03.261Z,1.10
2019-01-14T03:48:03.494Z,1.30
2019-01-14T03:50:07.664Z,1.10
2019-01-14T03:51:07.901Z,1.00
2019-01-14T03:53:12.077Z,1.40
2019-01-14T03:54:12.298Z,1.40
2019-01-14T03:56:05.373Z,1.20
2019-01-14T03:57:06.967Z,1.50
2019-01-14T03:59:09.777Z,1.40
2019-01-14T04:00:10.008Z,1.40
2019-01-14T04:02:14.153Z,1.20
2019-01-14T04:03:14.387Z,1.20
2019-01-14T04:05:18.556Z,1.40
2019-01-14T04:06:18.790Z,1.10
2019-01-14T04:08:22.958Z,1.30
2019-01-14T04:09:23.192Z,1.30
2019-01-14T04:11:27.336Z,1.20
2019-01-14T04:12:27.575Z,1.40
2019-01-14T04:14:31.738Z,1.40
2019-01-14T04:15:32.019Z,1.10
2019-01-14T04:17:36.121Z,1.10
2019-01-14T04:18:36.360Z,1.40
2019-01-14T04:20:40.522Z,1.40
2019-01-14T04:21:40.755Z,1.10
2019-01-14T04:23:44.918Z,1.20
2019-01-14T04:24:45.154Z,1.10
2019-01-14T04:26:49.304Z,1.20
2019-01-14T04:27:49.541Z,1.20
2019-01-14T04:29:53.709Z,1.20
2019-01-14T04:30:53.945Z,1.30
2019-01-14T04:32:58.096Z,1.30
2019-01-14T04:33:58.331Z,1.40
2019-01-14T04:35:51.424Z,1.60
2019-01-14T04:36:51.660Z,1.60
2019-01-14T04:38:55.834Z,1.30
2019-01-14T04:39:56.071Z,1.40
2019-01-14T04:42:00.219Z,1.40
2019-01-14T04:43:00.455Z,1.40
2019-01-14T04:45:04.623Z,1.60
2019-01-14T04:46:04.902Z,2.10
2019-01-14T04:48:09.002Z,2.00
2019-01-14T04:49:09.239Z,1.70
2019-01-14T04:51:13.413Z,2.30
2019-01-14T04:52:13.648Z,2.10
2019-01-14T04:54:17.813Z,1.80
2019-01-14T04:55:18.056Z,1.90
2019-01-14T04:57:22.196Z,2.50
2019-01-14T04:58:22.431Z,1.90
2019-01-14T05:00:26.605Z,1.70
2019-01-14T05:01:26.840Z,2.00
2019-01-14T05:03:30.983Z,1.90
2019-01-14T05:04:31.225Z,2.00
2019-01-14T05:06:35.385Z,2.20
2019-01-14T05:07:35.622Z,2.10
2019-01-14T05:09:39.951Z,1.80
2019-01-14T05:10:40.185Z,2.10
2019-01-14T05:12:44.326Z,1.90
2019-01-14T05:13:44.560Z,1.80
2019-01-14T05:15:37.656Z,2.00
2019-01-14T05:16:37.892Z,2.00
2019-01-14T05:18:42.038Z,1.90
2019-01-14T05:19:42.272Z,2.30
2019-01-14T05:21:46.445Z,1.80
2019-01-14T05:22:46.678Z,2.00
2019-01-14T05:24:50.819Z,2.10
2019-01-14T05:25:51.053Z,1.80
2019-01-14T05:27:55.221Z,2.00
2019-01-14T05:28:55.453Z,2.70
2019-01-14T05:30:59.623Z,2.30
2019-01-14T05:31:59.855Z,1.70
2019-01-14T05:34:03.994Z,1.90
2019-01-14T05:35:04.225Z,1.80
2019-01-14T05:37:08.394Z,2.10
2019-01-14T05:38:08.637Z,2.30
2019-01-14T05:40:12.765Z,1.80
2019-01-14T05:41:13.003Z,2.00
2019-01-14T05:43:17.163Z,2.00
2019-01-14T05:44:17.397Z,1.90
2019-01-14T05:46:10.498Z,2.10
2019-01-14T05:47:10.794Z,1.80
2019-01-14T05:49:14.885Z,1.90
2019-01-14T05:50:15.124Z,2.20
2019-01-14T05:52:19.294Z,2.10
2019-01-14T05:53:19.523Z,2.40
2019-01-14T05:55:23.672Z,2.20
2019-01-14T05:56:23.908Z,2.20
2019-01-14T05:58:28.066Z,2.20
2019-01-14T05:59:28.297Z,2.40
2019-01-14T06:01:32.469Z,2.00
2019-01-14T06:02:32.697Z,3.00
2019-01-14T06:04:36.841Z,2.40
2019-01-14T06:05:37.082Z,2.70
2019-01-14T06:07:45.000Z,3.00
2019-01-14T06:08:41.468Z,3.00
2019-01-14T06:10:45.628Z,3.30
2019-01-14T06:11:45.853Z,3.20
2019-01-14T06:13:50.028Z,2.30
2019-01-14T06:14:50.254Z,2.70
2019-01-14T06:16:54.414Z,3.50
2019-01-14T06:17:54.648Z,2.90
2019-01-14T06:19:58.785Z,2.60
2019-01-14T06:20:59.018Z,2.80
2019-01-14T06:23:03.185Z,2.30
2019-01-14T06:24:03.419Z,3.30
2019-01-14T06:25:56.495Z,2.90
2019-01-14T06:26:56.727Z,2.60
2019-01-14T06:29:00.889Z,2.50
2019-01-14T06:30:01.128Z,2.90
2019-01-14T06:32:05.267Z,2.70
2019-01-14T06:33:05.502Z,2.50
2019-01-14T06:35:09.666Z,3.20
2019-01-14T06:36:09.899Z,2.60
2019-01-14T06:38:14.068Z,3.00
2019-01-14T06:39:14.302Z,3.00
2019-01-14T06:41:18.446Z,2.90
2019-01-14T06:42:18.678Z,2.70
2019-01-14T06:44:22.851Z,2.60
2019-01-14T06:45:23.083Z,2.70
2019-01-14T06:47:28.243Z,2.80
2019-01-14T06:48:28.477Z,3.00
2019-01-14T06:50:32.646Z,3.30
2019-01-14T06:51:32.879Z,3.20
2019-01-14T06:53:37.049Z,3.30
2019-01-14T06:54:37.285Z,2.70
2019-01-14T06:56:41.431Z,2.60
2019-01-14T06:57:41.662Z,2.30
2019-01-14T06:59:45.825Z,3.20
2019-01-14T07:00:46.059Z,2.80
2019-01-14T07:02:50.203Z,3.10
2019-01-14T07:03:50.436Z,3.30
2019-01-14T07:05:43.537Z,3.00
2019-01-14T07:06:43.775Z,2.70
2019-01-14T07:08:47.933Z,3.40
2019-01-14T07:09:48.162Z,2.90
2019-01-14T07:11:52.317Z,3.30
2019-01-14T07:12:52.558Z,3.10
2019-01-14T07:14:56.742Z,2.80
2019-01-14T07:15:56.949Z,2.90
2019-01-14T07:18:01.100Z,3.40
2019-01-14T07:19:01.334Z,3.20
2019-01-14T07:21:05.501Z,3.20
2019-01-14T07:22:05.736Z,2.80
2019-01-14T07:24:09.902Z,3.10
2019-01-14T07:25:10.137Z,3.50
2019-01-14T07:27:14.283Z,3.40
2019-01-14T07:28:14.514Z,3.40
2019-01-14T07:30:18.687Z,2.70
2019-01-14T07:31:18.924Z,2.90
2019-01-14T07:33:23.069Z,3.50
2019-01-14T07:34:23.300Z,4.10
2019-01-14T07:36:27.478Z,3.40
2019-01-14T07:37:27.708Z,3.40
2019-01-14T07:39:31.888Z,3.00
2019-01-14T07:40:32.122Z,3.20
2019-01-14T07:42:36.262Z,4.00
2019-01-14T07:43:36.499Z,2.80
2019-01-14T07:45:29.601Z,3.10
2019-01-14T07:46:29.836Z,3.00
2019-01-14T07:48:33.980Z,3.00
2019-01-14T07:49:34.213Z,3.20
2019-01-14T07:51:38.390Z,2.90
2019-01-14T07:52:38.619Z,2.90
2019-01-14T07:54:42.757Z,3.80
2019-01-14T07:55:42.990Z,3.50
2019-01-14T07:57:47.156Z,3.40
2019-01-14T07:58:47.388Z,2.80
2019-01-14T08:00:51.556Z,2.80
2019-01-14T08:01:51.790Z,2.70
2019-01-14T08:03:55.943Z,2.40
2019-01-14T08:04:56.177Z,3.10
2019-01-14T08:07:00.344Z,2.80
2019-01-14T08:08:00.579Z,3.50
2019-01-14T08:10:04.753Z,2.80
2019-01-14T08:11:04.986Z,2.60
2019-01-14T08:13:09.132Z,2.60
2019-01-14T08:14:09.366Z,2.80
2019-01-14T08:16:02.466Z,2.60
2019-01-14T08:17:02.704Z,2.80
2019-01-14T08:19:06.851Z,2.70
2019-01-14T08:20:07.085Z,2.60
2019-01-14T08:22:12.273Z,3.00
2019-01-14T08:23:12.506Z,3.00
2019-01-14T08:25:16.674Z,2.70
2019-01-14T08:26:16.908Z,2.50
2019-01-14T08:28:21.060Z,2.90
2019-01-14T08:29:21.294Z,2.40
2019-01-14T08:31:25.470Z,2.40
2019-01-14T08:32:25.698Z,2.40
2019-01-14T08:34:29.843Z,2.50
2019-01-14T08:35:30.077Z,2.80
2019-01-14T08:37:34.250Z,2.70
2019-01-14T08:38:34.484Z,2.90
2019-01-14T08:40:38.660Z,2.80
2019-01-14T08:41:38.893Z,2.80
2019-01-14T08:43:43.046Z,2.70
2019-01-14T08:44:43.280Z,2.60
2019-01-14T08:46:47.446Z,2.60
2019-01-14T08:47:47.683Z,2.80
2019-01-14T08:49:51.828Z,2.20
2019-01-14T08:50:52.074Z,2.60
2019-01-14T08:52:56.247Z,2.60
2019-01-14T08:53:56.482Z,2.90
2019-01-14T08:55:49.556Z,2.80
2019-01-14T08:56:49.789Z,2.80
2019-01-14T08:58:53.953Z,2.70
2019-01-14T08:59:54.189Z,2.50
2019-01-14T09:01:59.431Z,3.00
2019-01-14T09:02:59.667Z,2.70
2019-01-14T09:05:03.812Z,2.60
2019-01-14T09:06:04.047Z,2.70
2019-01-14T09:08:08.215Z,2.90
2019-01-14T09:09:08.449Z,3.20
2019-01-14T09:11:12.597Z,2.10
2019-01-14T09:12:12.830Z,2.40
2019-01-14T09:14:17.004Z,2.30
2019-01-14T09:15:17.234Z,2.50
2019-01-14T09:17:21.410Z,2.40
2019-01-14T09:18:21.644Z,2.20
2019-01-14T09:20:25.793Z,2.20
2019-01-14T09:21:26.025Z,2.60
2019-01-14T09:23:30.198Z,2.50
2019-01-14T09:24:30.427Z,2.20
2019-01-14T09:26:34.600Z,2.70
2019-01-14T09:27:34.835Z,2.40
2019-01-14T09:29:38.985Z,2.30
2019-01-14T09:30:39.217Z,2.20
2019-01-14T09:32:44.419Z,2.60
2019-01-14T09:33:44.651Z,3.20
2019-01-14T09:35:37.737Z,3.10
2019-01-14T09:36:37.969Z,2.60
2019-01-14T09:38:42.137Z,2.40
2019-01-14T09:39:42.371Z,2.20
2019-01-14T09:41:46.519Z,2.10
2019-01-14T09:42:46.755Z,2.00
2019-01-14T09:44:50.924Z,2.50
2019-01-14T09:45:51.158Z,2.30
2019-01-14T09:47:55.327Z,2.00
2019-01-14T09:48:55.560Z,2.00
2019-01-14T09:50:59.705Z,1.90
2019-01-14T09:51:59.941Z,2.20
2019-01-14T09:54:04.105Z,2.20
2019-01-14T09:55:05.744Z,1.90
2019-01-14T09:57:08.488Z,2.30
2019-01-14T09:58:08.726Z,1.80
2019-01-14T10:00:12.904Z,2.00
2019-01-14T10:01:13.139Z,1.90
2019-01-14T10:03:17.310Z,1.30
2019-01-14T10:04:17.546Z,1.40
2019-01-14T10:06:10.620Z,1.40
2019-01-14T10:07:10.866Z,1.30
2019-01-14T10:09:15.031Z,1.40
2019-01-14T10:10:15.266Z,1.50
2019-01-14T10:12:19.419Z,1.40
2019-01-14T10:13:19.656Z,1.50
2019-01-14T10:15:23.842Z,1.30
2019-01-14T10:16:24.064Z,0.90
2019-01-14T10:18:28.236Z,1.00
2019-01-14T10:19:28.469Z,1.00
2019-01-14T10:21:32.617Z,1.30
2019-01-14T10:22:32.851Z,0.90
2019-01-14T10:24:37.019Z,1.30
2019-01-14T10:25:37.253Z,1.10
2019-01-14T10:27:41.401Z,0.90
2019-01-14T10:28:41.635Z,0.90
2019-01-14T10:30:45.805Z,1.00
2019-01-14T10:31:46.039Z,1.30
2019-01-14T10:33:50.216Z,1.50
2019-01-14T10:34:50.451Z,1.00
2019-01-14T10:36:54.605Z,1.20
2019-01-14T10:37:54.841Z,1.30
2019-01-14T10:39:59.012Z,1.20
2019-01-14T10:40:59.247Z,1.20
2019-01-14T10:43:03.419Z,1.30
2019-01-14T10:44:03.648Z,1.30
2019-01-14T10:45:56.739Z,1.10
2019-01-14T10:46:56.972Z,1.20
2019-01-14T10:49:01.120Z,1.30
2019-01-14T10:50:01.356Z,1.10
2019-01-14T10:52:05.524Z,1.30
2019-01-14T10:53:05.758Z,1.30
2019-01-14T10:55:12.374Z,1.10
2019-01-14T10:56:10.143Z,1.20
2019-01-14T10:58:14.310Z,1.20
2019-01-14T10:59:14.543Z,1.50
2019-01-14T11:01:18.716Z,1.30
2019-01-14T11:02:18.953Z,0.90
2019-01-14T11:04:23.102Z,1.20
2019-01-14T11:05:23.334Z,1.10
2019-01-14T11:07:27.508Z,1.60
2019-01-14T11:08:27.741Z,1.30
2019-01-14T11:10:31.892Z,1.20
2019-01-14T11:11:32.136Z,1.40
2019-01-14T11:13:36.296Z,1.30
2019-01-14T11:14:37.774Z,1.40
2019-01-14T11:16:40.708Z,1.40
2019-01-14T11:17:40.942Z,1.20
2019-01-14T11:19:45.087Z,1.50
2019-01-14T11:20:45.317Z,1.30
2019-01-14T11:22:49.492Z,1.50
2019-01-14T11:23:49.730Z,1.50
2019-01-14T11:25:42.798Z,1.00
2019-01-14T11:26:43.033Z,1.60
2019-01-14T11:28:47.201Z,1.20
2019-01-14T11:29:47.438Z,1.10
2019-01-14T11:31:51.618Z,1.10
2019-01-14T11:32:51.854Z,1.10
2019-01-14T11:34:56.008Z,1.00
2019-01-14T11:35:56.246Z,1.00
2019-01-14T11:38:00.433Z,1.00
2019-01-14T11:39:04.959Z,1.40
2019-01-14T11:41:04.820Z,1.10
2019-01-14T11:42:05.056Z,1.30
2019-01-14T11:44:09.229Z,1.60
2019-01-14T11:45:09.464Z,1.30
2019-01-14T11:47:13.664Z,1.30
2019-01-14T11:48:13.907Z,1.40
2019-01-14T11:50:18.053Z,1.20
2019-01-14T11:51:18.291Z,1.20
2019-01-14T11:53:22.460Z,1.10
2019-01-14T11:54:22.700Z,1.10
2019-01-14T11:56:26.852Z,1.20
2019-01-14T11:57:27.086Z,1.40
2019-01-14T11:59:31.258Z,1.40
2019-01-14T12:00:36.544Z,1.00
2019-01-14T12:02:39.549Z,1.20
2019-01-14T12:03:35.900Z,1.40
2019-01-14T12:05:28.993Z,1.20
2019-01-14T12:06:29.231Z,1.20
2019-01-14T12:08:33.407Z,1.30
2019-01-14T12:09:33.641Z,1.30
2019-01-14T12:11:37.789Z,0.90
2019-01-14T12:12:38.028Z,0.90
2019-01-14T12:14:42.216Z,1.20
2019-01-14T12:15:42.456Z,1.10
2019-01-14T12:17:46.619Z,1.20
2019-01-14T12:18:46.856Z,1.10
2019-01-14T12:20:51.046Z,1.20
2019-01-14T12:21:51.289Z,1.30
2019-01-14T12:23:55.468Z,1.00
2019-01-14T12:24:55.713Z,0.80
2019-01-14T12:26:59.871Z,1.10
2019-01-14T12:28:00.116Z,0.90
2019-01-14T12:30:04.298Z,1.00
2019-01-14T12:31:04.546Z,0.90
2019-01-14T12:33:08.727Z,1.00
2019-01-14T12:34:08.971Z,0.90
2019-01-14T12:36:02.061Z,1.00
2019-01-14T12:37:02.306Z,1.10
2019-01-14T12:39:06.502Z,0.80
2019-01-14T12:40:06.747Z,0.90
2019-01-14T12:42:10.912Z,1.00
2019-01-14T12:43:11.156Z,0.90
2019-01-14T12:45:15.340Z,1.00
2019-01-14T12:46:15.582Z,1.20
2019-01-14T12:48:19.740Z,0.80
2019-01-14T12:49:19.983Z,0.90
2019-01-14T12:51:24.154Z,0.90
2019-01-14T12:52:24.397Z,0.80
2019-01-14T12:54:28.567Z,1.00
2019-01-14T12:55:28.809Z,0.90
2019-01-14T12:57:32.964Z,0.90
2019-01-14T12:58:33.203Z,0.90
2019-01-14T13:00:37.386Z,1.20
2019-01-14T13:01:37.628Z,1.00
2019-01-14T13:03:41.802Z,0.90
2019-01-14T13:04:42.045Z,0.90
2019-01-14T13:06:47.219Z,0.90
2019-01-14T13:07:47.538Z,0.80
2019-01-14T13:09:51.805Z,0.90
2019-01-14T13:10:52.039Z,0.90
2019-01-14T13:12:56.536Z,0.90
2019-01-14T13:13:56.882Z,0.90
2019-01-14T13:15:51.506Z,1.00
2019-01-14T13:16:51.649Z,0.90
2019-01-14T13:18:55.880Z,1.10
2019-01-14T13:19:56.110Z,1.00
2019-01-14T13:22:00.289Z,1.10
2019-01-14T13:23:00.678Z,0.80
2019-01-14T13:25:04.698Z,1.00
2019-01-14T13:26:04.961Z,1.00
2019-01-14T13:28:20.428Z,0.90
2019-01-14T13:29:30.520Z,0.90
2019-01-14T13:31:24.954Z,1.20
2019-01-14T13:32:25.189Z,0.80
2019-01-14T13:34:29.355Z,0.90
2019-01-14T13:35:29.677Z,0.90
2019-01-14T13:37:34.383Z,0.90
2019-01-14T13:38:34.585Z,0.80
2019-01-14T13:40:40.273Z,1.10
2019-01-14T13:41:40.500Z,1.20
2019-01-14T13:43:45.165Z,0.90
2019-01-14T13:44:45.403Z,1.10
2019-01-14T13:46:49.633Z,1.00
2019-01-14T13:47:49.790Z,1.00
2019-01-14T13:49:53.958Z,1.10
2019-01-14T13:50:54.211Z,1.20
2019-01-14T13:52:58.361Z,1.00
2019-01-14T13:53:58.614Z,1.00
2019-01-14T13:55:51.729Z,0.90
2019-01-14T13:56:51.964Z,0.80
2019-01-14T13:58:56.138Z,0.80
2019-01-14T13:59:56.386Z,0.80
2019-01-14T14:02:00.581Z,1.10
2019-01-14T14:03:00.800Z,1.10
2019-01-14T14:05:05.981Z,1.00
2019-01-14T14:06:05.272Z,0.90
2019-01-14T14:08:09.470Z,1.00
2019-01-14T14:09:09.705Z,0.90
2019-01-14T14:11:13.914Z,0.80
2019-01-14T14:12:14.100Z,0.80
2019-01-14T14:14:18.258Z,1.00
2019-01-14T14:15:18.536Z,1.10
2019-01-14T14:17:23.145Z,0.90
2019-01-14T14:18:23.504Z,0.80
2019-01-14T14:20:27.888Z,0.80
2019-01-14T14:21:28.126Z,1.00
2019-01-14T14:23:33.436Z,1.00
2019-01-14T14:24:32.523Z,0.90
2019-01-14T14:26:36.687Z,0.70
2019-01-14T14:27:37.054Z,0.80
2019-01-14T14:29:41.240Z,0.90
2019-01-14T14:30:41.476Z,0.70
2019-01-14T14:32:45.822Z,1.10
2019-01-14T14:33:46.154Z,1.20
2019-01-14T14:35:39.444Z,0.80
2019-01-14T14:36:39.859Z,0.90
2019-01-14T14:38:43.808Z,1.20
2019-01-14T14:39:48.479Z,1.00
2019-01-14T14:41:48.487Z,1.20
2019-01-14T14:42:48.887Z,1.00
2019-01-14T14:44:55.322Z,1.00
2019-01-14T14:45:54.919Z,0.90
2019-01-14T14:47:59.179Z,1.20
2019-01-14T14:48:58.977Z,1.10
2019-01-14T14:51:03.337Z,1.20
2019-01-14T14:52:04.493Z,1.20
2019-01-14T14:54:07.827Z,1.10
2019-01-14T14:55:08.229Z,1.20
2019-01-14T14:57:12.583Z,1.00
2019-01-14T14:58:12.944Z,1.50
2019-01-14T15:00:17.122Z,1.30
2019-01-14T15:01:17.288Z,1.10
2019-01-14T15:03:22.869Z,1.10
2019-01-14T15:04:23.021Z,1.30
2019-01-14T15:06:27.339Z,1.10
2019-01-14T15:07:27.586Z,1.10
2019-01-14T15:09:31.932Z,1.30
2019-01-14T15:10:32.973Z,1.10
2019-01-14T15:12:37.870Z,1.00
2019-01-14T15:13:36.711Z,1.20
2019-01-14T15:16:30.111Z,1.00
2019-01-14T15:18:34.504Z,0.90
2019-01-14T15:19:34.818Z,1.20
2019-01-14T15:21:38.761Z,1.10
2019-01-14T15:22:38.999Z,1.00
2019-01-14T15:24:43.252Z,1.10
2019-01-14T15:25:43.634Z,0.90
2019-01-14T15:27:47.777Z,0.80
2019-01-14T15:28:47.783Z,0.90
2019-01-14T15:30:51.929Z,0.70
2019-01-14T15:31:52.169Z,0.90
2019-01-14T15:33:57.364Z,0.90
2019-01-14T15:34:58.376Z,0.90
2019-01-14T15:37:03.080Z,1.20
2019-01-14T15:38:03.405Z,0.90
2019-01-14T15:40:08.056Z,1.20
2019-01-14T15:41:08.292Z,1.40
2019-01-14T15:43:12.644Z,0.90
2019-01-14T15:44:12.646Z,1.00
2019-01-14T15:46:05.725Z,1.00
2019-01-14T15:47:05.967Z,1.20
2019-01-14T15:49:10.134Z,0.90
2019-01-14T15:50:10.366Z,1.20
2019-01-14T15:52:14.532Z,1.20
2019-01-14T15:53:14.770Z,1.20
2019-01-14T15:55:18.932Z,1.20
2019-01-14T15:56:19.237Z,1.10
2019-01-14T15:58:23.355Z,1.10
2019-01-14T15:59:23.591Z,1.40
2019-01-14T16:01:27.869Z,1.20
2019-01-14T16:02:28.066Z,1.30
2019-01-14T16:04:32.225Z,1.00
2019-01-14T16:05:32.549Z,0.90
2019-01-14T16:07:36.738Z,1.10
2019-01-14T16:08:37.086Z,1.40
2019-01-14T16:10:41.351Z,1.00
2019-01-14T16:11:41.718Z,1.40
2019-01-14T16:13:46.050Z,1.20
2019-01-14T16:14:46.888Z,1.20
2019-01-14T16:16:52.194Z,1.20
2019-01-14T16:17:52.699Z,1.10
2019-01-14T16:19:57.909Z,1.30
2019-01-14T16:20:57.427Z,1.20
2019-01-14T16:23:01.588Z,1.00
2019-01-14T16:24:02.627Z,1.30
2019-01-14T16:25:55.025Z,1.30
2019-01-14T16:26:56.092Z,1.40
2019-01-14T16:29:01.178Z,1.20
2019-01-14T16:30:01.358Z,1.10
2019-01-14T16:32:07.990Z,1.50
2019-01-14T16:33:07.314Z,1.10
2019-01-14T16:35:13.177Z,1.10
2019-01-14T16:36:13.173Z,1.90
2019-01-14T16:38:18.837Z,1.40
2019-01-14T16:39:19.065Z,1.40
2019-01-14T16:41:24.828Z,1.50
2019-01-14T16:42:25.056Z,1.20
2019-01-14T16:44:29.728Z,1.40
2019-01-14T16:45:30.123Z,1.30
2019-01-14T16:47:34.874Z,1.40
2019-01-14T16:48:35.001Z,1.30
2019-01-14T16:50:41.047Z,1.20
2019-01-14T16:51:40.871Z,1.20
2019-01-14T16:53:46.639Z,1.00
2019-01-14T16:54:46.970Z,1.00
2019-01-14T16:56:52.701Z,1.10
2019-01-14T16:57:52.921Z,1.40
2019-01-14T16:59:57.601Z,1.40
2019-01-14T17:00:57.923Z,1.20
2019-01-14T17:03:03.847Z,1.40
2019-01-14T17:04:03.974Z,1.20
2019-01-14T17:05:57.028Z,1.20
2019-01-14T17:06:57.262Z,1.30
2019-01-14T17:09:01.619Z,1.20
2019-01-14T17:10:01.616Z,1.40
2019-01-14T17:12:06.333Z,1.50
2019-01-14T17:13:06.563Z,1.50
2019-01-14T17:15:11.220Z,1.50
2019-01-14T17:16:11.532Z,1.60
2019-01-14T17:18:16.906Z,1.50
2019-01-14T17:19:16.905Z,1.40
2019-01-14T17:21:21.104Z,1.60
2019-01-14T17:22:21.333Z,1.60
2019-01-14T17:24:25.501Z,1.60
2019-01-14T17:25:25.731Z,1.70
2019-01-14T17:27:31.447Z,1.90
2019-01-14T17:28:31.838Z,1.50
2019-01-14T17:30:36.010Z,1.90
2019-01-14T17:31:36.250Z,1.60
2019-01-14T17:33:43.144Z,1.60
2019-01-14T17:34:43.088Z,2.00
2019-01-14T17:36:47.234Z,1.60
2019-01-14T17:37:47.603Z,1.40
2019-01-14T17:39:53.477Z,1.40
2019-01-14T17:40:53.703Z,1.40
2019-01-14T17:42:57.965Z,1.50
2019-01-14T17:43:58.194Z,1.60
2019-01-14T17:45:51.969Z,1.60
2019-01-14T17:46:52.198Z,1.80
2019-01-14T17:48:56.363Z,1.50
2019-01-14T17:49:56.596Z,1.60
2019-01-14T17:52:01.277Z,1.60
2019-01-14T17:53:01.603Z,2.00
2019-01-14T17:55:07.452Z,2.20
2019-01-14T17:56:07.454Z,1.60
2019-01-14T17:58:13.092Z,2.00
2019-01-14T17:59:13.484Z,1.90
2019-01-14T18:01:17.652Z,1.90
2019-01-14T18:02:17.885Z,2.00
2019-01-14T18:04:22.142Z,2.00
2019-01-14T18:05:22.339Z,2.00
2019-01-14T18:07:26.591Z,2.20
2019-01-14T18:08:26.817Z,2.10
2019-01-14T18:10:30.988Z,1.90
2019-01-14T18:11:31.221Z,2.00
2019-01-14T18:13:35.408Z,2.90
2019-01-14T18:14:35.775Z,2.00
2019-01-14T18:16:40.087Z,2.00
2019-01-14T18:17:40.432Z,1.80
2019-01-14T18:19:44.568Z,1.90
2019-01-14T18:20:44.969Z,1.90
2019-01-14T18:22:49.278Z,1.50
2019-01-14T18:23:49.685Z,2.20
2019-01-14T18:25:43.413Z,1.80
2019-01-14T18:26:42.812Z,1.70
2019-01-14T18:28:47.024Z,2.00
2019-01-14T18:29:47.346Z,1.70
2019-01-14T18:31:51.515Z,1.50
2019-01-14T18:32:51.750Z,1.40
2019-01-14T18:34:55.897Z,1.70
2019-01-14T18:35:56.135Z,1.70
2019-01-14T18:38:00.296Z,1.40
2019-01-14T18:39:00.535Z,1.60
2019-01-14T18:41:04.698Z,1.70
2019-01-14T18:42:04.932Z,1.70
2019-01-14T18:44:09.084Z,1.50
2019-01-14T18:45:09.327Z,1.90
2019-01-14T18:47:13.489Z,2.20
2019-01-14T18:48:13.804Z,1.70
2019-01-14T18:50:17.962Z,1.60
2019-01-14T18:51:18.199Z,1.90
2019-01-14T18:53:22.370Z,2.40
2019-01-14T18:54:22.603Z,1.90
2019-01-14T18:56:15.694Z,1.60
2019-01-14T18:57:15.928Z,1.90
2019-01-14T18:59:20.072Z,1.70
2019-01-14T19:00:20.348Z,2.10
2019-01-14T19:02:24.525Z,1.60
2019-01-14T19:03:24.795Z,1.70
2019-01-14T19:05:28.919Z,1.70
2019-01-14T19:06:29.153Z,1.90
2019-01-14T19:08:33.320Z,1.80
2019-01-14T19:09:33.555Z,2.10
2019-01-14T19:11:37.718Z,2.40
2019-01-14T19:12:37.945Z,2.00
2019-01-14T19:14:42.091Z,1.90
2019-01-14T19:15:42.323Z,1.80
2019-01-14T19:17:46.493Z,2.10
2019-01-14T19:18:46.723Z,2.20
2019-01-14T19:20:50.867Z,2.40
2019-01-14T19:21:51.100Z,2.30
2019-01-14T19:23:55.263Z,2.10
2019-01-14T19:24:55.497Z,2.10
2019-01-14T19:26:59.660Z,1.90
2019-01-14T19:27:59.915Z,2.00
2019-01-14T19:30:04.033Z,2.30
2019-01-14T19:31:04.270Z,1.70
2019-01-14T19:33:08.433Z,2.30
2019-01-14T19:34:08.661Z,1.90
2019-01-14T19:36:01.730Z,1.70
2019-01-14T19:37:01.965Z,1.90
2019-01-14T19:39:06.133Z,2.00
2019-01-14T19:40:06.365Z,2.30
2019-01-14T19:42:10.523Z,2.50
2019-01-14T19:43:10.757Z,2.10
2019-01-14T19:45:14.900Z,2.40
2019-01-14T19:46:15.132Z,2.40
2019-01-14T19:48:19.298Z,2.40
2019-01-14T19:49:19.563Z,2.50
2019-01-14T19:51:23.713Z,2.70
2019-01-14T19:52:23.944Z,2.40
2019-01-14T19:54:28.110Z,2.10
2019-01-14T19:55:28.342Z,2.40
2019-01-14T19:57:32.505Z,2.30
2019-01-14T19:58:32.735Z,2.50
2019-01-14T20:00:36.882Z,2.60
2019-01-14T20:01:37.109Z,2.50
2019-01-14T20:03:41.273Z,2.10
2019-01-14T20:04:41.505Z,2.40
2019-01-14T20:06:45.666Z,2.60
2019-01-14T20:07:45.912Z,2.80
2019-01-14T20:09:50.064Z,2.10
2019-01-14T20:10:50.298Z,2.10
2019-01-14T20:12:54.434Z,2.40
2019-01-14T20:13:54.667Z,2.00
2019-01-14T20:15:47.766Z,2.20
2019-01-14T20:16:47.998Z,2.30
2019-01-14T20:18:52.164Z,2.70
2019-01-14T20:19:52.395Z,2.50
2019-01-14T20:21:56.550Z,2.00
2019-01-14T20:22:58.438Z,2.40